Cumberland, RI (02864)

3:30 PM EDT on August 04, 2015 (GMT -0400)
Lippitt Estates | | Change Station
CLOSE
Current Station
Personal Weather Station
Location: Cumberland, RI
Elevation: 354 ft
Nearby Weather Stations

Elev 354 ft 41.96 °N, 71.42 °W | Updated 31 seconds ago

Partly Cloudy
Partly Cloudy
85.1 °F
Feels Like 87 °F
N
0.2
Wind Variable Wind from NNE
Gusts 2.5 mph

Today
High -- | Low -- °F
--% Chance of Precip.
Yesterday
High -- | Low -- °F
Precip. -- in
5:42 AM 8:00 PM
Waning Gibbous, 75% visible
Pressure 29.81 in
Visibility 10.0 miles
Clouds Few 4600 ft
Heat Index 87 °F
Dew Point 66 °F
Humidity 53%
Rainfall 0.33 in
Snow Depth Not available.
UV 2.0 out of 12
Pollen 7.30 out of 12
Air Quality Not available.
Flu Activity Not available.
METAR KSFZ 041915Z AUTO 20006G17KT 10SM FEW046 28/19 A2981 RMK AO1

More Conditions Fewer Conditions

Pressure 29.81 in
Visibility 10.0 miles
Clouds Few 4600 ft
Heat Index 87 °F
Dew Point 66 °F
Humidity 53%
Rainfall 0.33 in
Snow Depth Not available.
UV 2.0 out of 12
Pollen 7.30 out of 12
Air Quality Not available.
Flu Activity Not available.
METAR KSFZ 041915Z AUTO 20006G17KT 10SM FEW046 28/19 A2981 RMK AO1

More Conditions Fewer Conditions

10-Day Weather Forecast

×

Almanac

Astronomy

Aug. 04, 2015 Rise Set
Actual Time
Civil Twilight
Nautical Twilight
Astronomical Twilight
Moon
Length of Visible Light
Length of Day
Tomorrow will be .
, % of the Moon is Illuminated

Today's Extremes

State Highs State Lows

Community

WunderPhotos

Upload Photos

1,843,954 photos uploaded!

WunderBlogs® & News

Nearby

Air Quality

  Air Quality AQ Index Pollutant
Not available.

Snow Depth

Station Depth Elevation

Earthquake Activity

City Distance Mag. Time & Date
Minimum magnitude displayed is 2.5.

Coastal Water Temperatures

Place Temperature

Stations

Nearby Weather Stations

Station Location Temp. Windchill Dew Point Humidity Wind Precip. Elev Updated Type